Time;durP1;ratioP1;P1;durP2;ratioP2;P2;SDS_P1;SDS_P2;PMS_P1;PMS_P2;Temp;Humidity;BMP_temperature;BMP_pressure;BME280_temperature;BME280_humidity;BME280_pressure;Samples;Min_cycle;Max_cycle;Signal;HPM_P1;HPM_P2
2023/04/05 00:00:23;;;;;;;9.07;4.83;;;;;;;-2.70;100.00;101780.56;4894843;29;20052;-82
2023/04/05 00:02:51;;;;;;;8.77;4.47;;;;;;;-2.72;100.00;101777.03;4917213;29;20130;-81
2023/04/05 00:05:28;;;;;;;8.00;4.23;;;;;;;-2.82;100.00;101779.97;4926798;29;20043;-80
2023/04/05 00:07:59;;;;;;;8.37;3.80;;;;;;;-2.75;100.00;101774.31;4884546;29;20040;-80
2023/04/05 00:10:27;;;;;;;10.30;4.20;;;;;;;-2.79;100.00;101777.53;4892336;29;20052;-81
2023/04/05 00:12:54;;;;;;;7.63;3.60;;;;;;;-2.75;100.00;101776.00;4901757;29;20626;-81
2023/04/05 00:15:21;;;;;;;8.13;3.80;;;;;;;-2.57;100.00;101770.06;4869907;29;20409;-80
2023/04/05 00:17:48;;;;;;;12.80;4.93;;;;;;;-2.65;100.00;101773.06;4906911;29;20417;-81
2023/04/05 00:20:15;;;;;;;9.83;4.73;;;;;;;-2.70;100.00;101764.16;4914572;29;20078;-80
2023/04/05 00:22:45;;;;;;;11.97;4.53;;;;;;;-2.77;100.00;101762.13;4885728;29;20042;-81
2023/04/05 00:25:12;;;;;;;9.07;3.87;;;;;;;-2.84;100.00;101766.97;4934356;29;20039;-82
2023/04/05 00:27:38;;;;;;;11.67;4.30;;;;;;;-2.69;100.00;101766.88;4892856;29;20131;-81
2023/04/05 00:30:06;;;;;;;8.90;4.00;;;;;;;-2.73;100.00;101762.31;4900966;29;20458;-80
2023/04/05 00:32:32;;;;;;;9.57;4.50;;;;;;;-2.73;100.00;101762.31;4898848;29;20032;-80
2023/04/05 00:34:59;;;;;;;9.53;4.10;;;;;;;-2.72;100.00;101750.28;4935444;29;20135;-81
2023/04/05 00:37:26;;;;;;;10.33;4.80;;;;;;;-2.69;100.00;101750.41;4879105;29;20127;-81
2023/04/05 00:39:53;;;;;;;7.33;3.97;;;;;;;-2.66;100.00;101758.34;4897677;29;20193;-80
2023/04/05 00:42:20;;;;;;;8.13;4.40;;;;;;;-2.54;100.00;101758.97;4885291;29;20078;-80
2023/04/05 00:44:47;;;;;;;6.80;3.67;;;;;;;-2.59;100.00;101747.50;4917179;29;20047;-80
2023/04/05 00:47:14;;;;;;;5.87;3.03;;;;;;;-2.47;100.00;101761.03;4889398;29;20050;-81
2023/04/05 00:49:41;;;;;;;8.00;3.53;;;;;;;-2.34;100.00;101754.78;4881647;29;20063;-80
2023/04/05 00:52:07;;;;;;;6.00;3.03;;;;;;;-2.42;100.00;101757.00;4913897;29;20066;-79
2023/04/05 00:54:34;;;;;;;4.20;2.70;;;;;;;-2.31;100.00;101753.22;4915598;29;20040;-80
2023/04/05 00:57:01;;;;;;;3.90;2.10;;;;;;;-2.19;100.00;101744.28;4883486;29;20043;-81
2023/04/05 00:59:27;;;;;;;7.47;4.03;;;;;;;-2.21;100.00;101751.09;4902352;29;20051;-80
2023/04/05 01:01:59;;;;;;;3.40;2.40;;;;;;;-2.29;100.00;101749.00;4910386;29;20044;-80
2023/04/05 01:04:29;;;;;;;4.37;2.57;;;;;;;-2.33;100.00;101747.09;4912279;29;20051;-80
2023/04/05 01:07:18;;;;;;;2.60;1.80;;;;;;;-2.30;100.00;101749.81;4896942;29;20109;-80
2023/04/05 01:09:58;;;;;;;5.37;1.57;;;;;;;-2.20;100.00;101748.56;4903108;29;20062;-81
2023/04/05 01:12:33;;;;;;;2.27;1.53;;;;;;;-2.22;100.00;101747.59;4906759;29;21667;-80
2023/04/05 01:15:00;;;;;;;5.00;2.00;;;;;;;-2.14;100.00;101745.41;4879342;29;20044;-81
2023/04/05 01:17:35;;;;;;;4.83;2.03;;;;;;;-2.15;100.00;101739.34;4912002;29;20118;-79
2023/04/05 01:20:09;;;;;;;3.77;1.90;;;;;;;-2.19;100.00;101737.38;4914889;29;20054;-80
2023/04/05 01:22:53;;;;;;;4.20;2.03;;;;;;;-2.26;100.00;101735.34;4894009;29;20708;-80
2023/04/05 01:25:23;;;;;;;3.30;1.88;;;;;;;-2.23;100.00;101738.06;4912325;29;20040;-81
2023/04/05 01:28:27;;;;;;;3.00;1.70;;;;;;;-2.19;100.00;101733.91;4915548;29;20041;-81
2023/04/05 01:31:06;;;;;;;2.97;1.77;;;;;;;-2.14;100.00;101730.75;4938246;29;20540;-82
2023/04/05 01:34:06;;;;;;;5.33;2.47;;;;;;;-2.11;100.00;101723.13;4902260;29;20520;-81
2023/04/05 01:36:40;;;;;;;3.53;1.83;;;;;;;-2.00;100.00;101728.81;4912269;29;20044;-79
2023/04/05 01:39:08;;;;;;;3.25;1.67;;;;;;;-2.02;100.00;101728.75;4915582;29;20051;-82
2023/04/05 01:41:35;;;;;;;3.00;1.83;;;;;;;-1.97;100.00;101723.78;4902692;29;20040;-79
2023/04/05 01:44:01;;;;;;;2.03;1.43;;;;;;;-1.95;100.00;101722.13;4879319;29;20063;-81
2023/04/05 01:46:28;;;;;;;2.17;1.40;;;;;;;-1.91;100.00;101724.06;4891843;29;20050;-80
2023/04/05 01:48:55;;;;;;;3.40;1.67;;;;;;;-1.82;100.00;101723.63;4884505;29;20052;-80
2023/04/05 01:51:21;;;;;;;3.17;1.70;;;;;;;-1.76;100.00;101716.13;4897237;29;20036;-81
2023/04/05 01:53:48;;;;;;;2.30;1.30;;;;;;;-1.81;100.00;101717.63;4926269;29;20052;-81
2023/04/05 01:56:15;;;;;;;1.67;1.33;;;;;;;-1.82;100.00;101710.66;4895716;29;20445;-80
2023/04/05 01:58:42;;;;;;;2.93;1.60;;;;;;;-1.85;100.00;101715.69;4899017;29;20047;-80
2023/04/05 02:01:08;;;;;;;2.47;1.60;;;;;;;-1.84;100.00;101710.59;4881452;29;20056;-82
2023/04/05 02:03:35;;;;;;;2.50;1.40;;;;;;;-1.83;100.00;101709.78;4885242;29;20045;-79
2023/04/05 02:06:03;;;;;;;3.80;1.53;;;;;;;-1.82;100.00;101714.13;4901352;29;20082;-80
2023/04/05 02:08:29;;;;;;;2.87;1.80;;;;;;;-1.81;100.00;101707.25;4893600;29;20067;-81
2023/04/05 02:10:56;;;;;;;3.10;1.70;;;;;;;-1.70;100.00;101704.31;4917367;29;20052;-80
2023/04/05 02:13:24;;;;;;;4.97;1.93;;;;;;;-1.65;100.00;101698.47;4938087;29;20036;-81
2023/04/05 02:15:51;;;;;;;3.00;1.50;;;;;;;-1.65;100.00;101703.66;4888641;29;20548;-81
2023/04/05 02:18:21;;;;;;;3.77;1.80;;;;;;;-1.70;100.00;101695.66;4933352;29;20050;-79
2023/04/05 02:20:49;;;;;;;3.73;1.80;;;;;;;-1.65;100.00;101701.06;4896827;29;20952;-81
2023/04/05 02:23:19;;;;;;;2.30;1.40;;;;;;;-1.66;100.00;101705.38;4897556;29;20726;-80
2023/04/05 02:25:46;;;;;;;2.57;1.60;;;;;;;-1.66;100.00;101709.66;4897612;29;20414;-80
2023/04/05 02:28:13;;;;;;;2.23;1.57;;;;;;;-1.67;100.00;101697.53;4938455;29;20036;-80
2023/04/05 02:30:40;;;;;;;4.03;1.50;;;;;;;-1.70;100.00;101696.56;4901665;29;20052;-81
2023/04/05 02:33:09;;;;;;;2.27;1.53;;;;;;;-1.74;100.00;101699.84;4898486;29;20099;-81
2023/04/05 02:35:35;;;;;;;2.13;1.43;;;;;;;-1.74;100.00;101698.94;4877796;29;20044;-80
2023/04/05 02:38:03;;;;;;;3.33;1.80;;;;;;;-1.66;100.00;101689.81;4896607;29;20054;-80
2023/04/05 02:40:30;;;;;;;2.20;1.40;;;;;;;-1.61;100.00;101693.50;4928786;29;20043;-81
2023/04/05 02:42:57;;;;;;;1.83;1.30;;;;;;;-1.61;100.00;101696.09;4887291;29;20101;-81
2023/04/05 02:45:26;;;;;;;3.73;1.70;;;;;;;-1.64;100.00;101692.47;4897359;29;20040;-81
2023/04/05 02:47:54;;;;;;;3.23;1.80;;;;;;;-1.48;100.00;101690.66;4915752;29;20049;-80
2023/04/05 02:50:22;;;;;;;2.50;1.50;;;;;;;-1.45;100.00;101698.56;4901897;29;20811;-81
2023/04/05 02:52:49;;;;;;;4.57;1.70;;;;;;;-1.42;100.00;101697.81;4881443;29;20052;-80
2023/04/05 02:55:16;;;;;;;3.87;1.90;;;;;;;-1.50;100.00;101696.59;4897295;29;20056;-80
2023/04/05 02:57:43;;;;;;;2.73;1.50;;;;;;;-1.51;100.00;101697.41;4896666;29;22249;-80
2023/04/05 03:00:12;;;;;;;2.80;1.50;;;;;;;-1.58;100.00;101685.00;4909272;29;20044;-80
2023/04/05 03:02:39;;;;;;;3.13;1.67;;;;;;;-1.60;100.00;101687.50;4913211;29;20048;-80
2023/04/05 03:05:06;;;;;;;2.87;1.77;;;;;;;-1.52;100.00;101685.25;4914923;29;20127;-80
2023/04/05 03:07:34;;;;;;;3.67;1.67;;;;;;;-1.51;100.00;101680.16;4897395;29;20040;-80
2023/04/05 03:10:01;;;;;;;2.97;2.00;;;;;;;-1.54;100.00;101687.78;4893021;29;20048;-81
2023/04/05 03:12:28;;;;;;;2.23;1.67;;;;;;;-1.52;100.00;101683.53;4911255;29;20403;-80
2023/04/05 03:14:54;;;;;;;3.87;1.70;;;;;;;-1.47;100.00;101687.22;4897028;29;20040;-80
2023/04/05 03:17:21;;;;;;;5.07;2.00;;;;;;;-1.44;100.00;101681.28;4915618;29;20054;-80
2023/04/05 03:19:48;;;;;;;4.03;1.60;;;;;;;-1.49;100.00;101678.50;4910050;29;20454;-81
2023/04/05 03:22:14;;;;;;;1.93;1.47;;;;;;;-1.51;100.00;101677.56;4890999;29;20044;-81
2023/04/05 03:24:41;;;;;;;3.60;1.73;;;;;;;-1.42;100.00;101671.91;4913350;29;20043;-81
2023/04/05 03:27:08;;;;;;;2.67;1.60;;;;;;;-1.50;100.00;101678.44;4913048;29;20044;-81
2023/04/05 03:29:34;;;;;;;2.13;1.50;;;;;;;-1.43;100.00;101675.28;4930347;29;20087;-80
2023/04/05 03:32:01;;;;;;;2.43;1.50;;;;;;;-1.48;100.00;101669.91;4897854;29;20052;-81
2023/04/05 03:34:28;;;;;;;2.97;1.83;;;;;;;-1.51;100.00;101663.72;4913208;29;20036;-81
2023/04/05 03:36:54;;;;;;;2.33;1.53;;;;;;;-1.50;100.00;101673.28;4913373;29;20040;-81
2023/04/05 03:39:21;;;;;;;3.07;1.70;;;;;;;-1.42;100.00;101667.59;4898181;29;20044;-81
2023/04/05 03:41:48;;;;;;;2.77;1.50;;;;;;;-1.44;100.00;101678.69;4886286;29;20135;-81
2023/04/05 03:44:14;;;;;;;3.60;1.73;;;;;;;-1.39;100.00;101671.13;4922524;29;20039;-81
2023/04/05 03:46:41;;;;;;;3.97;1.73;;;;;;;-1.36;100.00;101659.19;4933341;29;20411;-81
2023/04/05 03:49:08;;;;;;;6.13;1.80;;;;;;;-1.34;100.00;101662.75;4897011;29;20040;-80
2023/04/05 03:51:35;;;;;;;3.47;1.60;;;;;;;-1.37;100.00;101653.94;4907704;29;20146;-80
2023/04/05 03:54:01;;;;;;;3.17;1.40;;;;;;;-1.34;100.00;101652.38;4900805;29;20040;-81
2023/04/05 03:56:28;;;;;;;3.23;1.53;;;;;;;-1.37;100.00;101665.19;4865742;29;20445;-80
2023/04/05 03:58:55;;;;;;;3.20;2.07;;;;;;;-1.44;100.00;101656.25;4900851;29;20497;-80
2023/04/05 04:01:21;;;;;;;3.57;2.00;;;;;;;-1.40;100.00;101659.88;4914088;29;20052;-80
2023/04/05 04:03:48;;;;;;;4.13;1.60;;;;;;;-1.43;100.00;101660.66;4901545;29;20103;-80
2023/04/05 04:06:15;;;;;;;3.63;2.07;;;;;;;-1.39;100.00;101653.88;4899865;29;20048;-80
2023/04/05 04:08:44;;;;;;;4.07;1.40;;;;;;;-1.40;100.00;101656.41;4901660;29;20044;-80
2023/04/05 04:11:11;;;;;;;2.60;1.50;;;;;;;-1.26;100.00;101661.38;4881581;29;20041;-80
2023/04/05 04:13:38;;;;;;;3.23;1.90;;;;;;;-1.35;100.00;101653.19;4884346;29;20048;-80
2023/04/05 04:16:05;;;;;;;3.10;1.50;;;;;;;-1.36;100.00;101650.53;4931122;29;20478;-80
2023/04/05 04:18:31;;;;;;;2.73;1.53;;;;;;;-1.43;100.00;101655.47;4903993;29;20040;-79
2023/04/05 04:21:05;;;;;;;2.53;1.57;;;;;;;-1.33;100.00;101655.88;4898850;29;20052;-80
2023/04/05 04:23:33;;;;;;;2.42;1.63;;;;;;;-1.39;100.00;101651.28;4883903;29;20502;-81
2023/04/05 04:26:00;;;;;;;2.60;1.60;;;;;;;-1.21;100.00;101662.44;4924531;29;20055;-80
2023/04/05 04:28:28;;;;;;;4.40;1.77;;;;;;;-1.26;100.00;101650.09;4914494;29;20131;-80
2023/04/05 04:30:54;;;;;;;3.00;1.50;;;;;;;-1.36;100.00;101647.94;4929845;29;20063;-80
2023/04/05 04:33:21;;;;;;;3.37;1.80;;;;;;;-1.34;100.00;101648.91;4929731;29;20486;-80
2023/04/05 04:35:48;;;;;;;3.73;1.37;;;;;;;-1.32;100.00;101649.84;4899679;29;20044;-80
2023/04/05 04:38:17;;;;;;;3.67;2.03;;;;;;;-1.27;100.00;101651.81;4898143;29;20044;-81
2023/04/05 04:40:49;;;;;;;2.97;1.97;;;;;;;-1.35;100.00;101652.28;4901555;29;20047;-82
2023/04/05 04:43:16;;;;;;;2.83;1.80;;;;;;;-1.16;100.00;101663.53;4899893;29;20044;-82
2023/04/05 04:45:50;;;;;;;5.23;2.10;;;;;;;-1.23;100.00;101664.09;4892853;29;20070;-81
2023/04/05 04:48:17;;;;;;;3.40;1.60;;;;;;;-1.26;100.00;101666.56;4901555;29;20493;-81
2023/04/05 04:50:45;;;;;;;3.40;1.97;;;;;;;-1.24;100.00;101672.69;4940226;29;20047;-81
2023/04/05 04:53:12;;;;;;;3.70;1.77;;;;;;;-1.15;100.00;101669.63;4898435;29;20144;-81
2023/04/05 04:55:42;;;;;;;2.50;1.73;;;;;;;-1.19;100.00;101671.16;4898866;29;20044;-80
2023/04/05 04:58:10;;;;;;;4.00;1.87;;;;;;;-1.21;100.00;101665.03;4932071;29;20441;-80
2023/04/05 05:00:42;;;;;;;2.73;1.77;;;;;;;-1.25;100.00;101668.34;4867943;29;20067;-80
2023/04/05 05:03:10;;;;;;;4.63;1.90;;;;;;;-1.21;100.00;101671.94;4906958;29;20518;-81
2023/04/05 05:05:44;;;;;;;3.30;2.10;;;;;;;-1.17;100.00;101679.03;4902260;29;20040;-81
2023/04/05 05:08:12;;;;;;;2.58;1.65;;;;;;;-1.16;100.00;101675.63;4900604;29;20454;-81
2023/04/05 05:10:38;;;;;;;2.50;1.30;;;;;;;-1.20;100.00;101672.00;4901098;29;20036;-81
2023/04/05 05:13:05;;;;;;;3.47;1.60;;;;;;;-1.04;100.00;101680.44;4909703;29;20047;-81
2023/04/05 05:15:32;;;;;;;2.73;1.43;;;;;;;-1.10;100.00;101673.28;4912239;29;20048;-81
2023/04/05 05:17:59;;;;;;;3.27;1.60;;;;;;;-1.11;100.00;101668.91;4940630;29;20127;-81
2023/04/05 05:20:27;;;;;;;4.03;2.27;;;;;;;-1.05;100.00;101668.28;4906340;29;20586;-81
2023/04/05 05:22:54;;;;;;;3.70;1.60;;;;;;;-0.96;100.00;101669.56;4911840;29;20055;-81
2023/04/05 05:25:21;;;;;;;7.27;3.87;;;;;;;-0.95;100.00;101665.25;4905812;29;20711;-81
2023/04/05 05:27:49;;;;;;;9.83;5.40;;;;;;;-0.92;100.00;101665.41;4916332;29;20063;-81
2023/04/05 05:30:17;;;;;;;12.27;7.17;;;;;;;-0.91;100.00;101665.47;4910395;29;20040;-81
2023/04/05 05:32:44;;;;;;;18.80;11.63;;;;;;;-0.85;100.00;101659.63;4898042;29;20142;-82
2023/04/05 05:35:10;;;;;;;16.10;10.73;;;;;;;-0.78;100.00;101659.06;4879298;29;20111;-81
2023/04/05 05:37:37;;;;;;;14.70;7.93;;;;;;;-0.72;100.00;101658.44;4901659;29;20491;-81
2023/04/05 05:40:04;;;;;;;9.00;5.27;;;;;;;-0.65;100.00;101652.69;4933251;29;20058;-80
2023/04/05 05:42:34;;;;;;;7.50;3.33;;;;;;;-0.59;100.00;101653.84;4908699;29;20052;-82
2023/04/05 05:45:03;;;;;;;5.87;2.93;;;;;;;-0.43;100.00;101649.22;4916339;29;20067;-81
2023/04/05 05:47:30;;;;;;;5.33;3.77;;;;;;;-0.32;100.00;101659.22;4901886;29;20113;-82
2023/04/05 05:49:56;;;;;;;10.37;4.27;;;;;;;-0.11;100.00;101666.09;4908642;29;20146;-82
2023/04/05 05:52:26;;;;;;;6.50;4.10;;;;;;;-0.09;100.00;101664.41;4896596;29;20048;-83
2023/04/05 05:54:52;;;;;;;6.40;3.60;;;;;;;-0.20;100.00;101657.94;4898076;29;20040;-83
2023/04/05 05:57:19;;;;;;;5.47;3.37;;;;;;;-0.09;100.00;101664.41;4915915;29;20071;-82
2023/04/05 05:59:46;;;;;;;5.03;3.37;;;;;;;-0.01;100.00;101660.41;4918967;29;20409;-82
2023/04/05 06:02:23;;;;;;;4.47;2.87;;;;;;;0.00;100.00;101667.41;4887626;23;20045;31
2023/04/05 06:04:50;;;;;;;6.30;3.17;;;;;;;-0.10;100.00;101663.53;4911286;29;20449;-82
2023/04/05 06:07:17;;;;;;;4.57;2.70;;;;;;;-0.34;100.00;101663.50;4913540;29;20071;-81
2023/04/05 06:09:44;;;;;;;4.40;2.23;;;;;;;-0.27;100.00;101677.56;4944014;29;20050;-82
2023/04/05 06:12:10;;;;;;;5.57;2.40;;;;;;;-0.15;100.00;101672.00;4921093;29;20054;-82
2023/04/05 06:14:37;;;;;;;3.07;1.90;;;;;;;-0.05;100.00;101680.19;4940863;28;20037;-84
2023/04/05 06:17:04;;;;;;;3.47;2.10;;;;;;;0.02;100.00;101680.44;4938734;29;20389;-83
2023/04/05 06:19:30;;;;;;;4.43;2.20;;;;;;;0.00;100.00;101670.00;4980240;28;20043;-82
2023/04/05 06:21:59;;;;;;;10.53;1.90;;;;;;;0.06;100.00;101679.72;4952012;28;20056;-83
2023/04/05 06:24:30;;;;;;;3.67;1.80;;;;;;;0.17;100.00;101668.00;4938867;29;20043;-81
2023/04/05 06:26:57;;;;;;;6.60;2.20;;;;;;;0.33;100.00;101675.56;4963627;28;20591;-80
2023/04/05 06:29:24;;;;;;;4.63;1.50;;;;;;;0.38;100.00;101668.81;4936358;28;20043;-81
2023/04/05 06:31:51;;;;;;;3.83;2.07;;;;;;;0.46;100.00;101676.91;4955619;28;20043;-80
2023/04/05 06:34:18;;;;;;;3.80;1.80;;;;;;;0.55;100.00;101667.72;4969418;28;20146;-81
2023/04/05 06:36:45;;;;;;;3.63;2.10;;;;;;;0.79;100.00;101664.25;4932405;28;20056;-80
2023/04/05 06:39:13;;;;;;;2.40;1.57;;;;;;;0.96;100.00;101664.81;4939246;28;20050;-79
2023/04/05 06:41:39;;;;;;;3.40;2.40;;;;;;;1.09;100.00;101673.13;4951330;28;20035;-80
2023/04/05 06:44:06;;;;;;;3.60;1.87;;;;;;;1.04;100.00;101666.84;4948376;28;20047;-80
2023/04/05 06:46:33;;;;;;;6.67;2.30;;;;;;;1.15;100.00;101675.03;4937345;29;20050;-77
2023/04/05 06:49:00;;;;;;;2.57;1.77;;;;;;;1.26;100.00;101667.56;4921195;29;20043;-81
2023/04/05 06:51:29;;;;;;;7.20;2.57;;;;;;;1.39;100.00;101670.63;4962546;28;20138;-79
2023/04/05 06:53:56;;;;;;;5.20;2.20;;;;;;;1.46;99.29;101668.25;4970728;28;20043;-79
2023/04/05 06:56:23;;;;;;;4.60;2.30;;;;;;;1.43;98.26;101671.63;4947480;28;20094;-81
2023/04/05 06:58:50;;;;;;;4.33;2.40;;;;;;;1.67;96.17;101664.59;4975514;28;20050;-81
2023/04/05 07:01:16;;;;;;;5.03;2.43;;;;;;;1.86;95.84;101665.19;4935183;29;20043;-80
2023/04/05 07:03:43;;;;;;;5.73;2.77;;;;;;;1.84;92.20;101665.13;4952793;28;20067;-81
2023/04/05 07:06:10;;;;;;;5.37;2.27;;;;;;;1.65;94.93;101665.38;4955036;29;20039;-80
2023/04/05 07:08:37;;;;;;;4.73;2.57;;;;;;;1.83;96.65;101671.16;4921488;29;20050;-81
2023/04/05 07:11:04;;;;;;;5.80;2.50;;;;;;;2.01;96.91;101660.41;4969304;28;20043;-81
2023/04/05 07:13:31;;;;;;;5.03;2.73;;;;;;;2.12;92.98;101664.25;4937488;29;20042;-81
2023/04/05 07:16:01;;;;;;;4.70;2.47;;;;;;;2.13;94.52;101666.03;4954380;28;20043;-80
2023/04/05 07:18:28;;;;;;;5.33;2.70;;;;;;;2.11;93.39;101659.88;4939143;28;20066;-81
2023/04/05 07:21:00;;;;;;;6.60;3.80;;;;;;;2.10;91.94;101662.41;4977361;28;20035;-83
2023/04/05 07:23:27;;;;;;;6.67;3.30;;;;;;;1.99;91.65;101664.72;4926273;29;20035;-81
2023/04/05 07:25:59;;;;;;;4.63;2.97;;;;;;;2.17;91.34;101657.44;4967210;28;20043;-81
2023/04/05 07:28:26;;;;;;;4.00;2.97;;;;;;;2.51;91.25;101658.41;4941453;28;20063;-81
2023/04/05 07:30:52;;;;;;;4.33;2.27;;;;;;;2.50;94.18;101662.75;4944762;29;20122;-81
2023/04/05 07:33:19;;;;;;;3.83;2.30;;;;;;;2.49;92.04;101668.81;4934138;29;20035;-81
2023/04/05 07:35:52;;;;;;;4.60;2.10;;;;;;;2.36;93.10;101665.81;4922344;29;20163;-81
2023/04/05 07:38:20;;;;;;;4.60;2.30;;;;;;;2.43;89.51;101654.69;4958823;29;20635;-81
2023/04/05 07:40:48;;;;;;;5.07;2.77;;;;;;;2.28;91.22;101667.31;4960851;28;20511;-81
2023/04/05 07:43:15;;;;;;;4.23;2.20;;;;;;;2.22;92.42;101671.50;4934763;28;20098;-80
2023/04/05 07:45:42;;;;;;;5.30;2.33;;;;;;;2.31;92.03;101665.66;4933229;28;20039;-81
2023/04/05 07:48:08;;;;;;;3.63;2.20;;;;;;;2.26;92.24;101668.13;4942858;29;20039;-81
2023/04/05 07:50:38;;;;;;;4.87;2.03;;;;;;;2.07;93.76;101664.94;4957684;29;20075;-81
2023/04/05 07:53:07;;;;;;;4.70;1.67;;;;;;;2.16;94.15;101662.59;4926036;29;20104;-80
2023/04/05 07:55:36;;;;;;;4.00;1.87;;;;;;;2.40;93.88;101671.16;4925751;29;20128;-80
2023/04/05 07:58:03;;;;;;;5.00;1.93;;;;;;;2.40;95.89;101678.09;4942325;29;20043;-82
2023/04/05 08:00:30;;;;;;;4.03;1.70;;;;;;;2.39;96.84;101673.72;4941117;29;20080;-81
2023/04/05 08:02:56;;;;;;;3.20;1.40;;;;;;;2.52;97.74;101670.59;4941074;29;20039;-80
2023/04/05 08:05:27;;;;;;;2.67;1.63;;;;;;;2.67;100.00;101664.94;4953968;28;20043;-80
2023/04/05 08:07:56;;;;;;;2.77;1.60;;;;;;;2.84;99.89;101663.66;4944430;29;20103;-80
2023/04/05 08:10:24;;;;;;;4.10;1.73;;;;;;;3.15;94.06;101668.00;4940229;29;20043;-81
2023/04/05 08:12:50;;;;;;;2.53;1.50;;;;;;;3.10;95.56;101672.19;4935965;29;20031;-81
2023/04/05 08:15:17;;;;;;;2.10;1.40;;;;;;;3.20;92.90;101671.63;4979870;28;20035;-80
2023/04/05 08:17:44;;;;;;;3.33;1.60;;;;;;;3.19;92.95;101672.44;4965365;28;20030;-81
2023/04/05 08:20:11;;;;;;;3.87;1.70;;;;;;;3.29;90.88;101673.56;4943857;29;20074;-80
2023/04/05 08:22:38;;;;;;;2.77;1.23;;;;;;;3.42;88.95;101675.63;4957835;29;20035;-80
2023/04/05 08:25:05;;;;;;;2.00;1.20;;;;;;;3.37;91.86;101666.81;4972711;28;20038;-79
2023/04/05 08:27:35;;;;;;;5.07;1.53;;;;;;;3.36;93.43;101668.53;4934073;29;20103;-79
2023/04/05 08:30:01;;;;;;;2.13;1.50;;;;;;;3.46;92.50;101671.38;4930718;29;20046;-80
2023/04/05 08:32:28;;;;;;;2.93;1.40;;;;;;;3.55;93.66;101674.22;4928230;29;20051;-80
2023/04/05 08:34:55;;;;;;;3.53;1.37;;;;;;;3.46;92.13;101681.84;4961046;28;20035;-80
2023/04/05 08:37:22;;;;;;;3.23;1.30;;;;;;;3.18;86.73;101673.28;4969202;28;20059;-81
2023/04/05 08:39:48;;;;;;;1.93;1.10;;;;;;;3.22;90.11;101685.59;4937990;29;20039;-81
2023/04/05 08:42:28;;;;;;;1.33;1.00;;;;;;;3.24;84.93;101673.44;4955060;28;20077;-80
2023/04/05 08:44:56;;;;;;;2.90;1.27;;;;;;;3.30;87.92;101676.22;4957243;28;20098;-82
2023/04/05 08:47:23;;;;;;;1.73;1.20;;;;;;;3.34;88.85;101677.16;4941231;29;20048;-79
2023/04/05 08:49:50;;;;;;;2.07;1.23;;;;;;;3.60;87.13;101678.69;4960860;28;20134;-81
2023/04/05 08:52:17;;;;;;;3.33;1.30;;;;;;;3.67;86.60;101672.75;4920730;29;20465;-79
2023/04/05 08:54:44;;;;;;;1.87;1.30;;;;;;;3.71;80.72;101671.13;4924503;29;20055;-79
2023/04/05 08:57:10;;;;;;;3.60;1.13;;;;;;;3.73;82.64;101669.44;4922936;28;20062;-76
2023/04/05 08:59:39;;;;;;;3.07;1.00;;;;;;;3.53;80.78;101665.44;4925315;29;20094;-79
2023/04/05 09:02:17;;;;;;;2.20;0.90;;;;;;;3.28;77.18;101659.63;4936105;29;20054;-82
2023/04/05 10:00:18;;;;;;;1.63;1.17;;;;;;;3.42;95.25;101669.53;4140805;23;23153;-79
2023/04/05 10:02:48;;;;;;;3.30;1.20;;;;;;;3.35;97.40;101666.75;4932652;29;20574;-79
2023/04/05 10:05:15;;;;;;;2.17;1.23;;;;;;;3.31;98.57;101667.53;4923426;29;20040;-78
2023/04/05 10:07:45;;;;;;;1.20;1.00;;;;;;;2.70;100.00;101668.53;4938689;28;20043;-79
2023/04/05 10:10:12;;;;;;;1.13;0.90;;;;;;;2.83;100.00;101668.00;4941866;28;20042;-78
2023/04/05 10:12:45;;;;;;;3.93;3.10;;;;;;;2.85;100.00;101664.56;4925079;29;20044;-79
2023/04/05 10:15:15;;;;;;;3.58;2.38;;;;;;;3.07;100.00;101674.72;4919019;29;20103;-80
2023/04/05 10:17:59;;;;;;;3.17;1.37;;;;;;;3.16;100.00;101671.47;4916443;29;20279;-79
2023/04/05 10:20:27;;;;;;;7.63;1.95;;;;;;;3.21;100.00;101662.94;4918103;29;20051;-81
2023/04/05 10:22:54;;;;;;;2.47;1.20;;;;;;;3.42;100.00;101665.19;4901857;29;20066;-79
2023/04/05 10:25:27;;;;;;;1.40;1.00;;;;;;;3.38;97.66;101671.19;4936346;29;20051;-80
2023/04/05 10:27:55;;;;;;;4.20;3.63;;;;;;;3.24;100.00;101665.59;4932108;29;20066;-78
2023/04/05 10:30:23;;;;;;;7.00;5.43;;;;;;;3.17;100.00;101671.50;4935444;29;20035;-81
2023/04/05 10:33:28;;;;;;;1.63;1.20;;;;;;;3.04;98.94;101659.00;4934058;29;20044;-79
2023/04/05 10:36:01;;;;;;;2.50;2.10;;;;;;;3.20;100.00;101655.94;4921018;29;20051;-80
2023/04/05 10:38:28;;;;;;;2.70;1.70;;;;;;;3.30;100.00;101660.56;4919756;29;20036;-80
2023/04/05 10:41:08;;;;;;;3.30;1.13;;;;;;;3.37;100.00;101666.81;4930703;29;20040;-80
2023/04/05 10:43:36;;;;;;;4.37;3.13;;;;;;;3.39;100.00;101662.50;4900876;29;20051;-81
2023/04/05 10:46:05;;;;;;;2.30;1.33;;;;;;;3.48;100.00;101660.13;4895218;29;20055;-81
2023/04/05 10:48:41;;;;;;;1.93;1.27;;;;;;;3.53;100.00;101665.44;4891978;29;20044;-80
2023/04/05 10:51:09;;;;;;;1.10;1.00;;;;;;;3.56;100.00;101655.97;4934114;29;20086;-79
2023/04/05 10:53:36;;;;;;;3.10;1.13;;;;;;;3.77;100.00;101659.91;4929054;29;20051;-80
2023/04/05 10:56:03;;;;;;;1.87;1.23;;;;;;;3.73;100.00;101666.81;4929356;29;20036;-79
2023/04/05 10:58:30;;;;;;;2.50;1.10;;;;;;;3.68;100.00;101663.19;4933818;29;20040;-79
2023/04/05 11:00:58;;;;;;;2.60;1.20;;;;;;;3.62;100.00;101665.69;4890079;29;20054;-79
2023/04/05 11:03:43;;;;;;;2.17;1.40;;;;;;;3.78;100.00;101662.56;4913961;29;20063;-80
2023/04/05 11:06:16;;;;;;;2.60;1.30;;;;;;;4.00;100.00;101663.06;4924098;29;20044;-79
2023/04/05 11:08:45;;;;;;;2.30;1.40;;;;;;;3.92;100.00;101661.16;4910474;29;20051;-80
2023/04/05 11:11:16;;;;;;;4.67;1.80;;;;;;;3.87;100.00;101651.47;4910547;29;20051;-79
2023/04/05 11:13:55;;;;;;;2.17;1.23;;;;;;;3.89;100.00;101652.38;4931309;29;20060;-80
2023/04/05 11:16:37;;;;;;;3.20;1.30;;;;;;;3.88;100.00;101646.25;4931640;29;20050;-80
2023/04/05 11:19:04;;;;;;;2.53;1.70;;;;;;;4.06;100.00;101653.63;4937619;29;20068;-80
2023/04/05 11:21:30;;;;;;;2.57;1.50;;;;;;;4.05;100.00;101636.19;4930541;29;20039;-79
2023/04/05 11:24:03;;;;;;;2.27;1.53;;;;;;;4.41;100.00;101638.66;4930022;29;20488;-79
2023/04/05 11:26:31;;;;;;;2.07;1.40;;;;;;;4.48;100.00;101632.72;4936057;29;20050;-80
2023/04/05 11:28:58;;;;;;;3.77;1.83;;;;;;;4.59;100.00;101632.91;4911529;29;20078;-79
2023/04/05 11:31:27;;;;;;;2.87;1.60;;;;;;;4.71;98.82;101633.16;4897257;29;20048;-82
2023/04/05 11:33:58;;;;;;;2.57;1.53;;;;;;;4.95;98.93;101631.81;4906744;29;20066;-83
2023/04/05 11:36:34;;;;;;;4.47;2.10;;;;;;;5.04;95.86;101621.50;4910811;29;20063;-80
2023/04/05 11:39:20;;;;;;;2.37;1.67;;;;;;;5.58;98.12;101608.44;4932514;29;20049;-81
2023/04/05 11:42:25;;;;;;;4.47;2.20;;;;;;;5.99;95.60;101613.44;4929657;29;20048;-81
2023/04/05 11:44:55;;;;;;;2.80;1.67;;;;;;;6.52;93.16;101613.22;4878572;29;20052;-81
2023/04/05 11:47:22;;;;;;;2.93;1.60;;;;;;;6.56;90.30;101599.28;4904244;29;20063;-81
2023/04/05 11:49:50;;;;;;;1.77;1.50;;;;;;;6.71;86.78;101602.03;4914776;29;20599;-81
2023/04/05 11:52:18;;;;;;;4.27;1.70;;;;;;;6.76;83.83;101595.09;4907575;29;20035;-81
2023/04/05 11:54:45;;;;;;;2.27;1.67;;;;;;;6.89;77.65;101597.81;4909826;29;20047;-82
2023/04/05 11:57:20;;;;;;;3.53;2.33;;;;;;;6.64;74.03;101597.59;4899913;29;20584;-82
2023/04/05 11:59:48;;;;;;;;;;;;;;;6.38;77.60;101599.91;4915018;29;20508;-83
2023/04/05 12:02:15;;;;;;;2.50;1.50;;;;;;;6.50;81.15;101593.94;4933083;29;20021;-81
2023/04/05 12:04:42;;;;;;;1.80;1.40;;;;;;;6.60;79.85;101585.28;4904661;29;20051;-82
2023/04/05 12:07:16;;;;;;;2.27;1.60;;;;;;;6.80;72.65;101584.59;4925369;29;20051;-80
2023/04/05 12:10:03;;;;;;;2.63;1.50;;;;;;;7.39;78.30;101597.38;4899867;29;20352;-80
2023/04/05 12:12:40;;;;;;;3.00;1.60;;;;;;;6.75;71.63;101589.84;4917134;29;20065;-81
2023/04/05 12:15:09;;;;;;;2.40;1.40;;;;;;;7.03;76.42;101588.34;4921761;29;20047;-81
2023/04/05 12:17:40;;;;;;;2.90;1.50;;;;;;;7.15;77.02;101580.56;4916076;29;20100;-81
2023/04/05 12:20:10;;;;;;;2.53;1.43;;;;;;;7.30;72.40;101575.41;4932953;29;20043;-81
2023/04/05 12:22:38;;;;;;;3.07;2.00;;;;;;;6.90;70.94;101581.22;4936626;29;20054;-81
2023/04/05 12:25:05;;;;;;;2.77;1.60;;;;;;;6.82;73.96;101578.53;4936992;29;20429;-82
2023/04/05 12:27:31;;;;;;;3.03;1.60;;;;;;;6.50;76.35;101575.56;4918528;29;20110;-81